Norman Atlantic — IBUM — position and weather

sailwx.info

Track history (hours):
 
Tides and Currents Weather Stations Pressure Air Temp Water Temp Dewpoint Dewpoint Depression Visibility Wind Speed Wind Dir Waves Ship Positions

Norman Atlantic

Last reported at 2014-Jul-22 08:33 UTC. Time now 2014-Jul-22 17:28 UTC.
Position N 43°34' W 005°41'.

Length 186 m; draft 6.3 m.

Type: Passenger vessel. MMSI: 247277400.

Date/timePositionNaut miles runAvg speedWind from/ knotsBaromVisibWave heightAir tempDewpointWater temp
2014-Jul-22 08:33N 43°34' W 005°41'1414.0
2014-Jul-22 07:33N 43°45' W 005°30'18718.6
2014-Jul-21 21:30N 46°26' W 003°17'1818.7
2014-Jul-21 20:32N 46°42' W 003°04'518.9
2014-Jul-21 20:17N 46°46' W 003°01'1418.9
2014-Jul-21 19:33N 46°57' W 002°48'2517.0
2014-Jul-21 18:06N 47°11' W 002°18'240 9.6
2014-Jul-20 17:11N 43°50' W 005°25'1421.5
2014-Jul-20 16:33N 43°38' W 005°35'7 1.0
2014-Jul-20 09:32N 43°33' W 005°41'1717.6
2014-Jul-20 08:33N 43°48' W 005°28'21721.4
2014-Jul-19 22:25N 46°53' W 002°48'39 3.9
2014-Jul-19 12:17N 47°19' W 003°31'1723.0
2014-Jul-19 11:32N 47°28' W 003°53'2323.1
2014-Jul-19 10:33N 47°38' W 004°23'2322.8
2014-Jul-19 09:33N 47°52' W 004°49'3122.0
2014-Jul-19 08:08N 48°11' W 005°26'22421.1
2014-Jul-18 21:33N 51°52' W 006°16'2221.7
2014-Jul-18 20:34N 52°14' W 006°16'3 3.1
2014-Jul-18 19:33N 52°15' W 006°20'0 0.0
2014-Jul-17 22:33N 52°15' W 006°20'0 0.0
2014-Jul-17 21:33N 52°15' W 006°20'1 0.7
2014-Jul-17 20:33N 52°16' W 006°20'1414.5
2014-Jul-17 19:33N 52°02' W 006°17'1919.5
2014-Jul-17 18:33N 51°42' W 006°13'2719.5
2014-Jul-17 17:10N 51°15' W 006°06'1819.5
2014-Jul-17 16:15N 50°58' W 006°02'1419.7
2014-Jul-17 15:32N 50°44' W 005°59'1919.4
2014-Jul-17 14:33N 50°25' W 005°55'14117.6
2014-Jul-17 06:33N 48°06' W 005°17'1919.4
2014-Jul-17 05:33N 47°55' W 004°53'6019.4
2014-Jul-17 02:29N 47°23' W 003°38'1819.1
2014-Jul-17 01:33N 47°13' W 003°16'1919.2
2014-Jul-17 00:33N 47°05' W 002°51'9 0.6
2014-Jul-16 09:32N 46°57' W 002°45'4418.0
2014-Jul-16 07:05N 46°20' W 003°22'17218.0
2014-Jul-15 21:31N 43°51' W 005°25'1818.7
2014-Jul-15 20:33N 43°36' W 005°37'4 0.3
2014-Jul-15 08:30N 43°34' W 005°41'1314.3
2014-Jul-15 07:33N 43°44' W 005°30'6218.5
2014-Jul-15 04:13N 44°38' W 004°47'1518.4
2014-Jul-15 03:25N 44°51' W 004°37'13218.0
2014-Jul-14 20:04N 46°45' W 003°01'2818.0
2014-Jul-14 18:32N 47°03' W 002°31'1916.2
2014-Jul-14 17:22N 47°17' W 002°11'1 0.1
2014-Jul-14 06:05N 47°18' W 002°10'25318.6
2014-Jul-13 16:32N 43°46' W 005°28'15 2.1
2014-Jul-13 09:33N 43°34' W 005°40'1919.0
2014-Jul-13 08:33N 43°50' W 005°26'4119.7
2014-Jul-13 06:29N 44°25' W 004°58'2219.8
2014-Jul-13 05:22N 44°45' W 004°43'1720.6
2014-Jul-13 04:33N 44°59' W 004°31'145 8.9
2014-Jul-12 12:13N 47°18' W 003°27'6522.5
2014-Jul-12 09:20N 47°52' W 004°49'  
Track history (hours):
 
Tides and Currents Weather Stations Pressure Air Temp Water Temp Dewpoint Dewpoint Depression Visibility Wind Speed Wind Dir Waves Ship Positions

Norman Atlantic

Last reported at 2014-Jul-22 08:33 UTC. Time now 2014-Jul-22 17:28 UTC.
Position N 43°34' W 005°41'.

Length 186 m; draft 6.3 m.

Type: Passenger vessel. MMSI: 247277400.

Date/timePositionNaut miles runAvg speedWind from/ knotsBaromVisibWave heightAir tempDewpointWater temp
2014-Jul-22 08:33N 43°34' W 005°41'1414.0
2014-Jul-22 07:33N 43°45' W 005°30'18718.6
2014-Jul-21 21:30N 46°26' W 003°17'1818.7
2014-Jul-21 20:32N 46°42' W 003°04'518.9
2014-Jul-21 20:17N 46°46' W 003°01'1418.9
2014-Jul-21 19:33N 46°57' W 002°48'2517.0
2014-Jul-21 18:06N 47°11' W 002°18'240 9.6
2014-Jul-20 17:11N 43°50' W 005°25'1421.5
2014-Jul-20 16:33N 43°38' W 005°35'7 1.0
2014-Jul-20 09:32N 43°33' W 005°41'1717.6
2014-Jul-20 08:33N 43°48' W 005°28'21721.4
2014-Jul-19 22:25N 46°53' W 002°48'39 3.9
2014-Jul-19 12:17N 47°19' W 003°31'1723.0
2014-Jul-19 11:32N 47°28' W 003°53'2323.1
2014-Jul-19 10:33N 47°38' W 004°23'2322.8
2014-Jul-19 09:33N 47°52' W 004°49'3122.0
2014-Jul-19 08:08N 48°11' W 005°26'22421.1
2014-Jul-18 21:33N 51°52' W 006°16'2221.7
2014-Jul-18 20:34N 52°14' W 006°16'3 3.1
2014-Jul-18 19:33N 52°15' W 006°20'0 0.0
2014-Jul-17 22:33N 52°15' W 006°20'0 0.0
2014-Jul-17 21:33N 52°15' W 006°20'1 0.7
2014-Jul-17 20:33N 52°16' W 006°20'1414.5
2014-Jul-17 19:33N 52°02' W 006°17'1919.5
2014-Jul-17 18:33N 51°42' W 006°13'2719.5
2014-Jul-17 17:10N 51°15' W 006°06'1819.5
2014-Jul-17 16:15N 50°58' W 006°02'1419.7
2014-Jul-17 15:32N 50°44' W 005°59'1919.4
2014-Jul-17 14:33N 50°25' W 005°55'14117.6
2014-Jul-17 06:33N 48°06' W 005°17'1919.4
2014-Jul-17 05:33N 47°55' W 004°53'6019.4
2014-Jul-17 02:29N 47°23' W 003°38'1819.1
2014-Jul-17 01:33N 47°13' W 003°16'1919.2
2014-Jul-17 00:33N 47°05' W 002°51'9 0.6
2014-Jul-16 09:32N 46°57' W 002°45'4418.0
2014-Jul-16 07:05N 46°20' W 003°22'17218.0
2014-Jul-15 21:31N 43°51' W 005°25'1818.7
2014-Jul-15 20:33N 43°36' W 005°37'4 0.3
2014-Jul-15 08:30N 43°34' W 005°41'1314.3
2014-Jul-15 07:33N 43°44' W 005°30'6218.5
2014-Jul-15 04:13N 44°38' W 004°47'1518.4
2014-Jul-15 03:25N 44°51' W 004°37'13218.0
2014-Jul-14 20:04N 46°45' W 003°01'2818.0
2014-Jul-14 18:32N 47°03' W 002°31'1916.2
2014-Jul-14 17:22N 47°17' W 002°11'1 0.1
2014-Jul-14 06:05N 47°18' W 002°10'25318.6
2014-Jul-13 16:32N 43°46' W 005°28'15 2.1
2014-Jul-13 09:33N 43°34' W 005°40'1919.0
2014-Jul-13 08:33N 43°50' W 005°26'4119.7
2014-Jul-13 06:29N 44°25' W 004°58'2219.8
2014-Jul-13 05:22N 44°45' W 004°43'1720.6
2014-Jul-13 04:33N 44°59' W 004°31'145 8.9
2014-Jul-12 12:13N 47°18' W 003°27'6522.5
2014-Jul-12 09:20N 47°52' W 004°49'  

Dump ship's entire track history